Aérodrome :
LOGIN :

S'inscrire | Disclaimer

   EN    FR    IT 

 










Légende :    VFR   VFR Marginal   IFR   IFR Intensif   IFR Très Intensif
Visi : 
Plafond : 
>= 8 km
>= 3000ft
5 à 8 km
1000 à 3000 ft
1500m à 5 km
500 à 1000 ft
800 à 1500m
200 à 500 ft
< 800m
< 200 ft
Symboles :   Orages  Brouillard  Fortes neiges  Fortes précipitations  Vent > 20 kt
SIGMETs :   Divers  Orages  Givrage  Turbulence  Onde Orograph.  Cendres Volcan.







- Altitude de l'aérodrome : 147 ft
- Code IATA : DUS


EDDL - Düsseldorf Int.

DERNIER METAR :
  • 291250Z 23014KT 9999 SCT025 BKN057 15/08 Q1024 NOSIG

METARs EXPIRÉS :
  • 291220Z 23013KT 200V260 9999 SCT022 SCT034 BKN066 14/09 Q1025 NOSIG
  • 291150Z 22015KT 9999 FEW022 SCT034 BKN066 14/09 Q1025 NOSIG
  • 291120Z 24014KT 9999 SCT022 BKN034 14/09 Q1025 NOSIG
  • 291050Z 24017KT 9999 BKN029 14/08 Q1025 NOSIG
  • 291020Z 23015KT 9999 BKN029 BKN044 15/08 Q1025 NOSIG

TAF TAF EDDL
Valide du 29 à 12h jusqu'au 30 à 18h UTC


291100Z 2912/3018 23014KT 9999 BKN030
BECMG 2917/2920 23006KT
BECMG 3002/3005 17008KT
Pas de NOTAMs connus pour ce terrain.



MET'MAP, la Météo Aéronautique d'un coup d'oeil ! - Copyright ORBIFLY Décembre 2007 - Disclaimer

ORBIFLY MET'MAP TEAM :

Programmation & Développement : Alexandra Zaïnal
Conception & Développement : Baudouin d'Aumeries
Co-Programmation & Développement : Marc-Olivier Méhu
Soutien technique & logistique : Manuel Goepfert

Contact : metmap@orbifly.com




SOURCES & CREDITS :

   NOAA